sensor_id;sensor_type;location;lat;lon;timestamp;temperature;humidity
76567;DHT22;65428;53.194;6.132;2023-12-28T00:00:30;10.30;99.90
76567;DHT22;65428;53.194;6.132;2023-12-28T00:02:56;9.90;99.90
76567;DHT22;65428;53.194;6.132;2023-12-28T00:05:21;10.00;99.90
76567;DHT22;65428;53.194;6.132;2023-12-28T00:07:47;9.90;99.90
76567;DHT22;65428;53.194;6.132;2023-12-28T00:10:13;10.00;99.90
76567;DHT22;65428;53.194;6.132;2023-12-28T00:12:38;10.00;99.90
76567;DHT22;65428;53.194;6.132;2023-12-28T00:15:04;10.20;99.90
76567;DHT22;65428;53.194;6.132;2023-12-28T00:17:30;10.00;99.90
76567;DHT22;65428;53.194;6.132;2023-12-28T00:19:56;10.10;99.90
76567;DHT22;65428;53.194;6.132;2023-12-28T00:22:22;10.10;99.90
76567;DHT22;65428;53.194;6.132;2023-12-28T00:24:47;10.10;99.90
76567;DHT22;65428;53.194;6.132;2023-12-28T00:27:13;10.10;99.90
76567;DHT22;65428;53.194;6.132;2023-12-28T00:29:39;10.10;99.90
76567;DHT22;65428;53.194;6.132;2023-12-28T00:32:07;10.10;99.90
76567;DHT22;65428;53.194;6.132;2023-12-28T00:34:32;10.10;99.90
76567;DHT22;65428;53.194;6.132;2023-12-28T00:36:58;10.20;99.90
76567;DHT22;65428;53.194;6.132;2023-12-28T00:39:24;10.20;99.90
76567;DHT22;65428;53.194;6.132;2023-12-28T00:41:49;10.10;99.90
76567;DHT22;65428;53.194;6.132;2023-12-28T00:44:15;10.20;99.90
76567;DHT22;65428;53.194;6.132;2023-12-28T00:46:42;10.10;99.90
76567;DHT22;65428;53.194;6.132;2023-12-28T00:49:07;10.10;99.90
76567;DHT22;65428;53.194;6.132;2023-12-28T00:51:34;10.10;99.90
76567;DHT22;65428;53.194;6.132;2023-12-28T00:53:59;10.10;99.90
76567;DHT22;65428;53.194;6.132;2023-12-28T00:56:25;10.20;99.90
76567;DHT22;65428;53.194;6.132;2023-12-28T00:58:51;10.10;99.90
76567;DHT22;65428;53.194;6.132;2023-12-28T01:01:16;10.10;99.90
76567;DHT22;65428;53.194;6.132;2023-12-28T01:03:42;10.10;99.90
76567;DHT22;65428;53.194;6.132;2023-12-28T01:06:08;10.00;99.90
76567;DHT22;65428;53.194;6.132;2023-12-28T01:08:33;10.10;99.90
76567;DHT22;65428;53.194;6.132;2023-12-28T01:10:59;9.70;99.90
76567;DHT22;65428;53.194;6.132;2023-12-28T01:13:27;9.90;99.90
76567;DHT22;65428;53.194;6.132;2023-12-28T01:15:53;9.90;99.90
76567;DHT22;65428;53.194;6.132;2023-12-28T01:18:19;9.90;99.90
76567;DHT22;65428;53.194;6.132;2023-12-28T01:20:44;9.90;99.90
76567;DHT22;65428;53.194;6.132;2023-12-28T01:23:10;9.80;99.90
76567;DHT22;65428;53.194;6.132;2023-12-28T01:25:36;10.10;99.90
76567;DHT22;65428;53.194;6.132;2023-12-28T01:28:01;9.70;99.90
76567;DHT22;65428;53.194;6.132;2023-12-28T01:30:27;9.80;99.90
76567;DHT22;65428;53.194;6.132;2023-12-28T01:32:53;9.80;99.90
76567;DHT22;65428;53.194;6.132;2023-12-28T01:35:19;9.80;99.90
76567;DHT22;65428;53.194;6.132;2023-12-28T01:37:45;9.80;99.90
76567;DHT22;65428;53.194;6.132;2023-12-28T01:40:11;9.90;99.90
76567;DHT22;65428;53.194;6.132;2023-12-28T01:42:37;9.90;99.90
76567;DHT22;65428;53.194;6.132;2023-12-28T01:45:03;9.90;99.90
76567;DHT22;65428;53.194;6.132;2023-12-28T01:47:29;9.90;99.90
76567;DHT22;65428;53.194;6.132;2023-12-28T01:49:56;9.90;99.90
76567;DHT22;65428;53.194;6.132;2023-12-28T01:52:22;9.90;99.90
76567;DHT22;65428;53.194;6.132;2023-12-28T01:54:49;10.10;99.90
76567;DHT22;65428;53.194;6.132;2023-12-28T01:57:15;9.90;99.90
76567;DHT22;65428;53.194;6.132;2023-12-28T01:59:42;9.90;99.90
76567;DHT22;65428;53.194;6.132;2023-12-28T02:02:08;9.90;99.90
76567;DHT22;65428;53.194;6.132;2023-12-28T02:04:35;9.90;99.90
76567;DHT22;65428;53.194;6.132;2023-12-28T02:07:01;9.90;99.90
76567;DHT22;65428;53.194;6.132;2023-12-28T02:09:26;9.90;99.90
76567;DHT22;65428;53.194;6.132;2023-12-28T02:11:53;9.90;99.90
76567;DHT22;65428;53.194;6.132;2023-12-28T02:14:20;10.20;99.90
76567;DHT22;65428;53.194;6.132;2023-12-28T02:16:57;9.90;99.90
76567;DHT22;65428;53.194;6.132;2023-12-28T02:19:25;9.90;99.90
76567;DHT22;65428;53.194;6.132;2023-12-28T02:21:54;9.90;99.90
76567;DHT22;65428;53.194;6.132;2023-12-28T02:24:21;9.90;99.90
76567;DHT22;65428;53.194;6.132;2023-12-28T02:26:46;10.20;99.90
76567;DHT22;65428;53.194;6.132;2023-12-28T02:29:12;10.00;99.90
76567;DHT22;65428;53.194;6.132;2023-12-28T02:31:45;10.10;99.90
76567;DHT22;65428;53.194;6.132;2023-12-28T02:34:25;10.10;99.90
76567;DHT22;65428;53.194;6.132;2023-12-28T02:36:51;10.40;99.90
76567;DHT22;65428;53.194;6.132;2023-12-28T02:39:18;10.20;99.90
76567;DHT22;65428;53.194;6.132;2023-12-28T02:41:45;10.50;99.90
76567;DHT22;65428;53.194;6.132;2023-12-28T02:44:11;10.20;99.90
76567;DHT22;65428;53.194;6.132;2023-12-28T02:46:36;10.30;99.90
76567;DHT22;65428;53.194;6.132;2023-12-28T02:49:02;10.20;99.90
76567;DHT22;65428;53.194;6.132;2023-12-28T02:51:28;10.30;99.90
76567;DHT22;65428;53.194;6.132;2023-12-28T02:53:53;10.30;99.90
76567;DHT22;65428;53.194;6.132;2023-12-28T02:56:19;10.70;99.90
76567;DHT22;65428;53.194;6.132;2023-12-28T02:58:44;10.70;99.90
76567;DHT22;65428;53.194;6.132;2023-12-28T03:01:10;10.50;99.90
76567;DHT22;65428;53.194;6.132;2023-12-28T03:03:36;10.40;99.90
76567;DHT22;65428;53.194;6.132;2023-12-28T03:06:02;10.40;99.90
76567;DHT22;65428;53.194;6.132;2023-12-28T03:08:27;10.40;99.90
76567;DHT22;65428;53.194;6.132;2023-12-28T03:10:53;10.50;99.90
76567;DHT22;65428;53.194;6.132;2023-12-28T03:13:20;10.40;99.90
76567;DHT22;65428;53.194;6.132;2023-12-28T03:15:46;10.80;99.90
76567;DHT22;65428;53.194;6.132;2023-12-28T03:18:12;10.40;99.90
76567;DHT22;65428;53.194;6.132;2023-12-28T03:20:37;10.50;99.90
76567;DHT22;65428;53.194;6.132;2023-12-28T03:23:03;10.50;99.90
76567;DHT22;65428;53.194;6.132;2023-12-28T03:25:29;10.50;99.90
76567;DHT22;65428;53.194;6.132;2023-12-28T03:27:55;10.50;99.90
76567;DHT22;65428;53.194;6.132;2023-12-28T03:30:21;10.40;99.90
76567;DHT22;65428;53.194;6.132;2023-12-28T03:32:46;10.40;99.90
76567;DHT22;65428;53.194;6.132;2023-12-28T03:35:12;10.50;99.90
76567;DHT22;65428;53.194;6.132;2023-12-28T03:37:38;10.50;99.90
76567;DHT22;65428;53.194;6.132;2023-12-28T03:40:05;10.70;99.90
76567;DHT22;65428;53.194;6.132;2023-12-28T03:42:31;10.50;99.90
76567;DHT22;65428;53.194;6.132;2023-12-28T03:44:57;10.50;99.90
76567;DHT22;65428;53.194;6.132;2023-12-28T03:47:23;10.60;99.90
76567;DHT22;65428;53.194;6.132;2023-12-28T03:49:49;10.50;99.90
76567;DHT22;65428;53.194;6.132;2023-12-28T03:52:15;10.60;99.90
76567;DHT22;65428;53.194;6.132;2023-12-28T03:54:40;10.50;99.90
76567;DHT22;65428;53.194;6.132;2023-12-28T03:57:06;10.70;99.90
76567;DHT22;65428;53.194;6.132;2023-12-28T03:59:32;10.50;99.90
76567;DHT22;65428;53.194;6.132;2023-12-28T04:01:57;11.10;99.90
76567;DHT22;65428;53.194;6.132;2023-12-28T04:04:23;10.50;99.90
76567;DHT22;65428;53.194;6.132;2023-12-28T04:06:49;10.70;99.90
76567;DHT22;65428;53.194;6.132;2023-12-28T04:09:14;10.80;99.90
76567;DHT22;65428;53.194;6.132;2023-12-28T04:11:40;10.50;99.90
76567;DHT22;65428;53.194;6.132;2023-12-28T04:14:06;10.60;99.90
76567;DHT22;65428;53.194;6.132;2023-12-28T04:16:31;10.40;99.90
76567;DHT22;65428;53.194;6.132;2023-12-28T04:18:57;10.50;99.90
76567;DHT22;65428;53.194;6.132;2023-12-28T04:21:23;10.50;99.90
76567;DHT22;65428;53.194;6.132;2023-12-28T04:23:48;10.70;99.90
76567;DHT22;65428;53.194;6.132;2023-12-28T04:26:17;10.40;99.90
76567;DHT22;65428;53.194;6.132;2023-12-28T04:28:43;10.50;99.90
76567;DHT22;65428;53.194;6.132;2023-12-28T04:31:08;10.60;99.90
76567;DHT22;65428;53.194;6.132;2023-12-28T04:33:34;10.60;99.90
76567;DHT22;65428;53.194;6.132;2023-12-28T04:36:03;10.60;99.90
76567;DHT22;65428;53.194;6.132;2023-12-28T04:38:30;10.60;99.90
76567;DHT22;65428;53.194;6.132;2023-12-28T04:40:57;11.00;99.90
76567;DHT22;65428;53.194;6.132;2023-12-28T04:43:22;10.70;99.90
76567;DHT22;65428;53.194;6.132;2023-12-28T04:45:50;10.70;99.90
76567;DHT22;65428;53.194;6.132;2023-12-28T04:48:15;10.50;99.90
76567;DHT22;65428;53.194;6.132;2023-12-28T04:50:47;10.60;99.90
76567;DHT22;65428;53.194;6.132;2023-12-28T04:53:13;10.60;99.90
76567;DHT22;65428;53.194;6.132;2023-12-28T04:55:39;10.50;99.90
76567;DHT22;65428;53.194;6.132;2023-12-28T04:58:04;10.50;99.90
76567;DHT22;65428;53.194;6.132;2023-12-28T05:00:30;10.60;99.90
76567;DHT22;65428;53.194;6.132;2023-12-28T05:02:57;10.50;99.90
76567;DHT22;65428;53.194;6.132;2023-12-28T05:05:22;10.50;99.90
76567;DHT22;65428;53.194;6.132;2023-12-28T05:07:48;10.50;99.90
76567;DHT22;65428;53.194;6.132;2023-12-28T05:10:14;10.70;99.90
76567;DHT22;65428;53.194;6.132;2023-12-28T05:12:39;10.60;99.90
76567;DHT22;65428;53.194;6.132;2023-12-28T05:15:08;10.50;99.90
76567;DHT22;65428;53.194;6.132;2023-12-28T05:17:34;10.60;99.90
76567;DHT22;65428;53.194;6.132;2023-12-28T05:20:00;10.60;99.90
76567;DHT22;65428;53.194;6.132;2023-12-28T05:22:25;10.60;99.90
76567;DHT22;65428;53.194;6.132;2023-12-28T05:24:54;10.60;99.90
76567;DHT22;65428;53.194;6.132;2023-12-28T05:27:20;10.60;99.90
76567;DHT22;65428;53.194;6.132;2023-12-28T05:29:46;10.60;99.90
76567;DHT22;65428;53.194;6.132;2023-12-28T05:32:11;10.50;99.90
76567;DHT22;65428;53.194;6.132;2023-12-28T05:34:37;10.40;99.90
76567;DHT22;65428;53.194;6.132;2023-12-28T05:37:03;10.50;99.90
76567;DHT22;65428;53.194;6.132;2023-12-28T05:39:29;10.50;99.90
76567;DHT22;65428;53.194;6.132;2023-12-28T05:41:54;10.50;99.90
76567;DHT22;65428;53.194;6.132;2023-12-28T05:44:20;10.60;99.90
76567;DHT22;65428;53.194;6.132;2023-12-28T05:46:46;10.50;99.90
76567;DHT22;65428;53.194;6.132;2023-12-28T05:49:12;10.50;99.90
76567;DHT22;65428;53.194;6.132;2023-12-28T05:51:41;10.60;99.90
76567;DHT22;65428;53.194;6.132;2023-12-28T05:54:07;10.50;99.90
76567;DHT22;65428;53.194;6.132;2023-12-28T05:56:33;10.50;99.90
76567;DHT22;65428;53.194;6.132;2023-12-28T05:58:59;10.60;99.90
76567;DHT22;65428;53.194;6.132;2023-12-28T06:01:24;10.30;99.90
76567;DHT22;65428;53.194;6.132;2023-12-28T06:03:53;10.70;99.90
76567;DHT22;65428;53.194;6.132;2023-12-28T06:06:26;10.50;99.90
76567;DHT22;65428;53.194;6.132;2023-12-28T06:08:52;10.70;99.90
76567;DHT22;65428;53.194;6.132;2023-12-28T06:11:19;10.70;99.90
76567;DHT22;65428;53.194;6.132;2023-12-28T06:13:44;10.70;99.90
76567;DHT22;65428;53.194;6.132;2023-12-28T06:16:10;10.60;99.90
76567;DHT22;65428;53.194;6.132;2023-12-28T06:18:36;10.60;99.90
76567;DHT22;65428;53.194;6.132;2023-12-28T06:21:01;10.70;99.90
76567;DHT22;65428;53.194;6.132;2023-12-28T06:23:28;11.00;99.90
76567;DHT22;65428;53.194;6.132;2023-12-28T06:25:53;10.70;99.90
76567;DHT22;65428;53.194;6.132;2023-12-28T06:28:20;10.70;99.90
76567;DHT22;65428;53.194;6.132;2023-12-28T06:30:46;10.70;99.90
76567;DHT22;65428;53.194;6.132;2023-12-28T06:33:11;10.50;99.90
76567;DHT22;65428;53.194;6.132;2023-12-28T06:35:37;10.40;99.90
76567;DHT22;65428;53.194;6.132;2023-12-28T06:38:03;11.00;99.90
76567;DHT22;65428;53.194;6.132;2023-12-28T06:40:29;10.70;99.90
76567;DHT22;65428;53.194;6.132;2023-12-28T06:42:54;10.80;99.90
76567;DHT22;65428;53.194;6.132;2023-12-28T06:45:20;10.50;99.90
76567;DHT22;65428;53.194;6.132;2023-12-28T06:47:48;10.70;99.90
76567;DHT22;65428;53.194;6.132;2023-12-28T06:50:14;10.80;99.90
76567;DHT22;65428;53.194;6.132;2023-12-28T06:52:39;10.60;99.90
76567;DHT22;65428;53.194;6.132;2023-12-28T06:55:05;10.90;99.90
76567;DHT22;65428;53.194;6.132;2023-12-28T06:57:34;10.70;99.90
76567;DHT22;65428;53.194;6.132;2023-12-28T07:00:00;10.70;99.90
76567;DHT22;65428;53.194;6.132;2023-12-28T07:02:28;10.70;99.90
76567;DHT22;65428;53.194;6.132;2023-12-28T07:04:54;11.00;99.90
76567;DHT22;65428;53.194;6.132;2023-12-28T07:07:20;11.10;99.90
76567;DHT22;65428;53.194;6.132;2023-12-28T07:09:45;11.00;99.90
76567;DHT22;65428;53.194;6.132;2023-12-28T07:12:11;10.90;99.90
76567;DHT22;65428;53.194;6.132;2023-12-28T07:14:36;10.80;99.90
76567;DHT22;65428;53.194;6.132;2023-12-28T07:17:02;10.80;99.90
76567;DHT22;65428;53.194;6.132;2023-12-28T07:19:28;10.80;99.90
76567;DHT22;65428;53.194;6.132;2023-12-28T07:21:54;11.10;99.90
76567;DHT22;65428;53.194;6.132;2023-12-28T07:24:20;11.10;99.90
76567;DHT22;65428;53.194;6.132;2023-12-28T07:26:45;11.00;99.90
76567;DHT22;65428;53.194;6.132;2023-12-28T07:29:11;10.80;99.90
76567;DHT22;65428;53.194;6.132;2023-12-28T07:31:37;10.70;99.90
76567;DHT22;65428;53.194;6.132;2023-12-28T07:34:02;10.70;99.90
76567;DHT22;65428;53.194;6.132;2023-12-28T07:36:28;10.70;99.90
76567;DHT22;65428;53.194;6.132;2023-12-28T07:38:55;10.70;99.90
76567;DHT22;65428;53.194;6.132;2023-12-28T07:41:20;10.70;99.90
76567;DHT22;65428;53.194;6.132;2023-12-28T07:43:46;10.70;99.90
76567;DHT22;65428;53.194;6.132;2023-12-28T07:46:12;10.70;99.90
76567;DHT22;65428;53.194;6.132;2023-12-28T07:48:38;10.80;99.90
76567;DHT22;65428;53.194;6.132;2023-12-28T07:51:04;10.60;99.90
76567;DHT22;65428;53.194;6.132;2023-12-28T07:53:30;10.80;99.90
76567;DHT22;65428;53.194;6.132;2023-12-28T07:55:56;10.80;99.90
76567;DHT22;65428;53.194;6.132;2023-12-28T07:58:22;10.60;99.90
76567;DHT22;65428;53.194;6.132;2023-12-28T08:00:48;10.80;99.90
76567;DHT22;65428;53.194;6.132;2023-12-28T08:03:14;11.10;99.90
76567;DHT22;65428;53.194;6.132;2023-12-28T08:05:43;11.10;99.90
76567;DHT22;65428;53.194;6.132;2023-12-28T08:08:09;10.90;99.90
76567;DHT22;65428;53.194;6.132;2023-12-28T08:10:34;10.90;99.90
76567;DHT22;65428;53.194;6.132;2023-12-28T08:13:00;11.00;99.90
76567;DHT22;65428;53.194;6.132;2023-12-28T08:15:26;10.90;99.90
76567;DHT22;65428;53.194;6.132;2023-12-28T08:17:51;11.10;99.90
76567;DHT22;65428;53.194;6.132;2023-12-28T08:20:17;11.00;99.90
76567;DHT22;65428;53.194;6.132;2023-12-28T08:22:43;11.00;99.90
76567;DHT22;65428;53.194;6.132;2023-12-28T08:25:11;11.00;99.90
76567;DHT22;65428;53.194;6.132;2023-12-28T08:27:37;10.90;99.90
76567;DHT22;65428;53.194;6.132;2023-12-28T08:30:03;10.60;99.90
76567;DHT22;65428;53.194;6.132;2023-12-28T08:32:29;11.00;99.90
76567;DHT22;65428;53.194;6.132;2023-12-28T08:34:55;11.00;99.90
76567;DHT22;65428;53.194;6.132;2023-12-28T08:37:24;11.30;99.90
76567;DHT22;65428;53.194;6.132;2023-12-28T08:39:50;11.10;99.90
76567;DHT22;65428;53.194;6.132;2023-12-28T08:42:15;11.20;99.90
76567;DHT22;65428;53.194;6.132;2023-12-28T08:44:41;11.00;99.90
76567;DHT22;65428;53.194;6.132;2023-12-28T08:47:07;11.10;99.90
76567;DHT22;65428;53.194;6.132;2023-12-28T08:49:32;11.00;99.90
76567;DHT22;65428;53.194;6.132;2023-12-28T08:51:59;10.90;99.90
76567;DHT22;65428;53.194;6.132;2023-12-28T08:54:25;11.00;99.90
76567;DHT22;65428;53.194;6.132;2023-12-28T08:56:50;11.00;99.90
76567;DHT22;65428;53.194;6.132;2023-12-28T08:59:18;11.00;99.90
76567;DHT22;65428;53.194;6.132;2023-12-28T09:01:44;10.90;99.90
76567;DHT22;65428;53.194;6.132;2023-12-28T09:04:10;11.10;99.90
76567;DHT22;65428;53.194;6.132;2023-12-28T09:06:35;11.10;99.90
76567;DHT22;65428;53.194;6.132;2023-12-28T09:09:01;11.10;99.90
76567;DHT22;65428;53.194;6.132;2023-12-28T09:11:27;11.10;99.90
76567;DHT22;65428;53.194;6.132;2023-12-28T09:13:54;11.20;99.90
76567;DHT22;65428;53.194;6.132;2023-12-28T09:16:20;11.20;99.90
76567;DHT22;65428;53.194;6.132;2023-12-28T09:18:45;11.20;99.90
76567;DHT22;65428;53.194;6.132;2023-12-28T09:21:11;11.20;99.90
76567;DHT22;65428;53.194;6.132;2023-12-28T09:23:57;11.30;99.90
76567;DHT22;65428;53.194;6.132;2023-12-28T09:26:23;11.50;99.90
76567;DHT22;65428;53.194;6.132;2023-12-28T09:28:48;11.20;99.90
76567;DHT22;65428;53.194;6.132;2023-12-28T09:31:14;11.20;99.90
76567;DHT22;65428;53.194;6.132;2023-12-28T09:33:40;11.20;99.90
76567;DHT22;65428;53.194;6.132;2023-12-28T09:36:06;11.10;99.90
76567;DHT22;65428;53.194;6.132;2023-12-28T09:38:31;11.20;99.90
76567;DHT22;65428;53.194;6.132;2023-12-28T09:40:58;11.40;99.90
76567;DHT22;65428;53.194;6.132;2023-12-28T09:43:31;11.40;99.90
76567;DHT22;65428;53.194;6.132;2023-12-28T09:46:06;11.30;99.90
76567;DHT22;65428;53.194;6.132;2023-12-28T09:48:33;11.10;99.90
76567;DHT22;65428;53.194;6.132;2023-12-28T09:51:00;11.10;99.90
76567;DHT22;65428;53.194;6.132;2023-12-28T09:53:26;11.00;99.90
76567;DHT22;65428;53.194;6.132;2023-12-28T09:55:52;11.10;99.90
76567;DHT22;65428;53.194;6.132;2023-12-28T09:58:20;11.10;99.90
76567;DHT22;65428;53.194;6.132;2023-12-28T10:00:47;11.10;99.90
76567;DHT22;65428;53.194;6.132;2023-12-28T10:03:14;10.90;99.90
76567;DHT22;65428;53.194;6.132;2023-12-28T10:05:44;11.30;99.90
76567;DHT22;65428;53.194;6.132;2023-12-28T10:08:16;11.40;99.90
76567;DHT22;65428;53.194;6.132;2023-12-28T10:10:44;11.10;99.90
76567;DHT22;65428;53.194;6.132;2023-12-28T10:13:16;11.10;99.90
76567;DHT22;65428;53.194;6.132;2023-12-28T10:15:43;11.10;99.90
76567;DHT22;65428;53.194;6.132;2023-12-28T10:18:09;11.10;99.90
76567;DHT22;65428;53.194;6.132;2023-12-28T10:20:34;11.10;99.90
76567;DHT22;65428;53.194;6.132;2023-12-28T10:23:00;11.10;99.90
76567;DHT22;65428;53.194;6.132;2023-12-28T10:25:27;11.20;99.90
76567;DHT22;65428;53.194;6.132;2023-12-28T10:27:53;11.10;99.90
76567;DHT22;65428;53.194;6.132;2023-12-28T10:30:22;11.10;99.90
76567;DHT22;65428;53.194;6.132;2023-12-28T10:32:48;11.10;99.90
76567;DHT22;65428;53.194;6.132;2023-12-28T10:35:15;11.10;99.90
76567;DHT22;65428;53.194;6.132;2023-12-28T10:37:41;11.30;99.90
76567;DHT22;65428;53.194;6.132;2023-12-28T10:40:08;11.10;99.90
76567;DHT22;65428;53.194;6.132;2023-12-28T10:45:16;11.10;99.90
76567;DHT22;65428;53.194;6.132;2023-12-28T10:50:22;11.10;99.90
76567;DHT22;65428;53.194;6.132;2023-12-28T10:52:56;11.10;99.90
76567;DHT22;65428;53.194;6.132;2023-12-28T11:00:32;11.10;99.90
76567;DHT22;65428;53.194;6.132;2023-12-28T11:03:03;11.10;99.90
76567;DHT22;65428;53.194;6.132;2023-12-28T11:05:31;11.10;99.90
76567;DHT22;65428;53.194;6.132;2023-12-28T11:07:59;11.10;99.90
76567;DHT22;65428;53.194;6.132;2023-12-28T11:10:27;11.00;99.90
76567;DHT22;65428;53.194;6.132;2023-12-28T11:12:54;11.20;99.90
76567;DHT22;65428;53.194;6.132;2023-12-28T11:15:22;11.20;99.90
76567;DHT22;65428;53.194;6.132;2023-12-28T11:17:49;11.20;99.90
76567;DHT22;65428;53.194;6.132;2023-12-28T11:20:15;11.20;99.90
76567;DHT22;65428;53.194;6.132;2023-12-28T11:22:42;11.20;99.90
76567;DHT22;65428;53.194;6.132;2023-12-28T11:25:18;11.40;99.90
76567;DHT22;65428;53.194;6.132;2023-12-28T11:27:45;11.20;99.90
76567;DHT22;65428;53.194;6.132;2023-12-28T11:30:12;11.10;99.90
76567;DHT22;65428;53.194;6.132;2023-12-28T11:32:39;11.20;99.90
76567;DHT22;65428;53.194;6.132;2023-12-28T11:35:08;11.40;99.90
76567;DHT22;65428;53.194;6.132;2023-12-28T11:37:38;11.20;99.90
76567;DHT22;65428;53.194;6.132;2023-12-28T11:40:13;11.20;99.90
76567;DHT22;65428;53.194;6.132;2023-12-28T11:42:51;11.30;99.90
76567;DHT22;65428;53.194;6.132;2023-12-28T11:45:18;11.20;99.90
76567;DHT22;65428;53.194;6.132;2023-12-28T11:47:44;11.60;99.90
76567;DHT22;65428;53.194;6.132;2023-12-28T11:50:10;11.50;99.90
76567;DHT22;65428;53.194;6.132;2023-12-28T11:52:36;11.30;99.90
76567;DHT22;65428;53.194;6.132;2023-12-28T11:55:02;11.20;99.90
76567;DHT22;65428;53.194;6.132;2023-12-28T11:57:28;11.20;99.90
76567;DHT22;65428;53.194;6.132;2023-12-28T11:59:56;11.40;99.90
76567;DHT22;65428;53.194;6.132;2023-12-28T12:02:22;11.20;99.90
76567;DHT22;65428;53.194;6.132;2023-12-28T12:04:49;11.40;99.90
76567;DHT22;65428;53.194;6.132;2023-12-28T12:07:15;11.30;99.90
76567;DHT22;65428;53.194;6.132;2023-12-28T12:09:41;11.10;99.90
76567;DHT22;65428;53.194;6.132;2023-12-28T12:12:07;11.10;99.90
76567;DHT22;65428;53.194;6.132;2023-12-28T12:14:34;11.10;99.90
76567;DHT22;65428;53.194;6.132;2023-12-28T12:17:00;11.10;99.90
76567;DHT22;65428;53.194;6.132;2023-12-28T12:19:26;11.20;99.90
76567;DHT22;65428;53.194;6.132;2023-12-28T12:21:53;11.10;99.90
76567;DHT22;65428;53.194;6.132;2023-12-28T12:24:19;11.40;99.90
76567;DHT22;65428;53.194;6.132;2023-12-28T12:26:49;11.30;99.90
76567;DHT22;65428;53.194;6.132;2023-12-28T12:29:15;11.30;99.90
76567;DHT22;65428;53.194;6.132;2023-12-28T12:31:41;11.20;99.90
76567;DHT22;65428;53.194;6.132;2023-12-28T12:34:12;11.20;99.90
76567;DHT22;65428;53.194;6.132;2023-12-28T12:36:38;11.20;99.90
76567;DHT22;65428;53.194;6.132;2023-12-28T12:39:04;11.40;99.90
76567;DHT22;65428;53.194;6.132;2023-12-28T12:41:34;11.30;99.90
76567;DHT22;65428;53.194;6.132;2023-12-28T12:44:00;11.20;99.90
76567;DHT22;65428;53.194;6.132;2023-12-28T12:46:26;11.20;99.90
76567;DHT22;65428;53.194;6.132;2023-12-28T12:49:00;11.20;99.90
76567;DHT22;65428;53.194;6.132;2023-12-28T12:51:28;11.20;99.90
76567;DHT22;65428;53.194;6.132;2023-12-28T12:54:00;11.20;99.90
76567;DHT22;65428;53.194;6.132;2023-12-28T12:56:28;11.50;99.90
76567;DHT22;65428;53.194;6.132;2023-12-28T12:58:55;11.30;99.90
76567;DHT22;65428;53.194;6.132;2023-12-28T13:01:22;11.10;99.90
76567;DHT22;65428;53.194;6.132;2023-12-28T13:03:49;11.10;99.90
76567;DHT22;65428;53.194;6.132;2023-12-28T13:06:15;11.30;99.90
76567;DHT22;65428;53.194;6.132;2023-12-28T13:08:41;11.20;99.90
76567;DHT22;65428;53.194;6.132;2023-12-28T13:11:06;11.30;99.90
76567;DHT22;65428;53.194;6.132;2023-12-28T13:13:33;11.20;99.90
76567;DHT22;65428;53.194;6.132;2023-12-28T13:15:59;11.20;99.90
76567;DHT22;65428;53.194;6.132;2023-12-28T13:18:24;11.20;99.90
76567;DHT22;65428;53.194;6.132;2023-12-28T13:20:53;11.20;99.90
76567;DHT22;65428;53.194;6.132;2023-12-28T13:23:19;11.20;99.90
76567;DHT22;65428;53.194;6.132;2023-12-28T13:25:45;11.10;99.90
76567;DHT22;65428;53.194;6.132;2023-12-28T13:28:10;11.10;99.90
76567;DHT22;65428;53.194;6.132;2023-12-28T13:30:38;11.30;99.90
76567;DHT22;65428;53.194;6.132;2023-12-28T13:33:03;11.20;99.90
76567;DHT22;65428;53.194;6.132;2023-12-28T13:35:30;11.10;99.90
76567;DHT22;65428;53.194;6.132;2023-12-28T13:37:59;11.10;99.90
76567;DHT22;65428;53.194;6.132;2023-12-28T13:40:25;11.10;99.90
76567;DHT22;65428;53.194;6.132;2023-12-28T13:42:50;11.30;99.90
76567;DHT22;65428;53.194;6.132;2023-12-28T13:45:16;11.20;99.90
76567;DHT22;65428;53.194;6.132;2023-12-28T13:47:42;11.10;99.90
76567;DHT22;65428;53.194;6.132;2023-12-28T13:50:08;11.10;99.90
76567;DHT22;65428;53.194;6.132;2023-12-28T13:52:33;11.00;99.90
76567;DHT22;65428;53.194;6.132;2023-12-28T13:54:59;11.10;99.90
76567;DHT22;65428;53.194;6.132;2023-12-28T13:57:25;11.00;99.90
76567;DHT22;65428;53.194;6.132;2023-12-28T13:59:50;11.10;99.90
76567;DHT22;65428;53.194;6.132;2023-12-28T14:02:16;11.20;99.90
76567;DHT22;65428;53.194;6.132;2023-12-28T14:04:42;11.00;99.90
76567;DHT22;65428;53.194;6.132;2023-12-28T14:07:07;11.00;99.90
76567;DHT22;65428;53.194;6.132;2023-12-28T14:09:33;10.90;99.90
76567;DHT22;65428;53.194;6.132;2023-12-28T14:11:59;11.00;99.90
76567;DHT22;65428;53.194;6.132;2023-12-28T14:14:24;10.90;99.90
76567;DHT22;65428;53.194;6.132;2023-12-28T14:16:50;10.90;99.90
76567;DHT22;65428;53.194;6.132;2023-12-28T14:19:16;11.20;99.90
76567;DHT22;65428;53.194;6.132;2023-12-28T14:21:42;10.90;99.90
76567;DHT22;65428;53.194;6.132;2023-12-28T14:24:09;10.90;99.90
76567;DHT22;65428;53.194;6.132;2023-12-28T14:26:40;10.90;99.90
76567;DHT22;65428;53.194;6.132;2023-12-28T14:29:10;10.70;99.90
76567;DHT22;65428;53.194;6.132;2023-12-28T14:31:36;10.60;99.90
76567;DHT22;65428;53.194;6.132;2023-12-28T14:34:02;10.60;99.90
76567;DHT22;65428;53.194;6.132;2023-12-28T14:36:34;10.60;99.90
76567;DHT22;65428;53.194;6.132;2023-12-28T14:39:03;10.50;99.90
76567;DHT22;65428;53.194;6.132;2023-12-28T14:41:36;10.40;99.90
76567;DHT22;65428;53.194;6.132;2023-12-28T14:44:03;10.40;99.90
76567;DHT22;65428;53.194;6.132;2023-12-28T14:46:29;10.40;99.90
76567;DHT22;65428;53.194;6.132;2023-12-28T14:48:55;10.30;99.90
76567;DHT22;65428;53.194;6.132;2023-12-28T14:51:22;10.50;99.90
76567;DHT22;65428;53.194;6.132;2023-12-28T14:53:48;10.60;99.90
76567;DHT22;65428;53.194;6.132;2023-12-28T14:56:14;10.30;99.90
76567;DHT22;65428;53.194;6.132;2023-12-28T14:58:41;10.60;99.90
76567;DHT22;65428;53.194;6.132;2023-12-28T15:01:10;10.30;99.90
76567;DHT22;65428;53.194;6.132;2023-12-28T15:03:36;10.40;99.90
76567;DHT22;65428;53.194;6.132;2023-12-28T15:06:04;10.30;99.90
76567;DHT22;65428;53.194;6.132;2023-12-28T15:08:30;10.20;99.90
76567;DHT22;65428;53.194;6.132;2023-12-28T15:10:56;10.20;99.90
76567;DHT22;65428;53.194;6.132;2023-12-28T15:13:23;10.20;99.90
76567;DHT22;65428;53.194;6.132;2023-12-28T15:15:51;10.20;99.90
76567;DHT22;65428;53.194;6.132;2023-12-28T15:18:17;10.20;99.90
76567;DHT22;65428;53.194;6.132;2023-12-28T15:20:47;10.30;99.90
76567;DHT22;65428;53.194;6.132;2023-12-28T15:23:16;10.30;99.90
76567;DHT22;65428;53.194;6.132;2023-12-28T15:25:42;10.30;99.90
76567;DHT22;65428;53.194;6.132;2023-12-28T15:28:08;10.10;99.90
76567;DHT22;65428;53.194;6.132;2023-12-28T15:30:34;10.30;99.90
76567;DHT22;65428;53.194;6.132;2023-12-28T15:33:00;10.40;99.90
76567;DHT22;65428;53.194;6.132;2023-12-28T15:35:26;10.40;99.90
76567;DHT22;65428;53.194;6.132;2023-12-28T15:37:52;10.70;99.90